Aviation Digital Data Service (ADDS)

Output produced by METARs form (1834 UTC 18 April 2019)
found at http://www.aviationweather.gov/metar/data/
 
Forecast for: EDDC (DRESDEN/KLOTZSCH, DE)
Text: TAF EDDC 181700Z 1818/1918 08014KT CAVOK
Forecast period: 1800 UTC 18 April 2019 to 1800 UTC 19 April 2019
Forecast type: FROM: standard forecast or significant change
Winds: from the E (80 degrees) at 16 MPH (14 knots; 7.2 m/s)
Visibility: 6 or more miles 10+ km)
Ceiling: unknown
Clouds: missing
Weather: NSW  (no significant weather)
Text: BECMG 1818/1820 09005KT
Forecast period: 1800 UTC 18 April 2019 to 0800 UTC 19 April 2019
Forecast type: BECOMING: Conditions expected to become as follows by 2000 UTC 18 April 2019
Winds: from the E (90 degrees) at 6 MPH (5 knots; 2.6 m/s)
Visibility: 6 or more miles 10+ km)
Ceiling: unknown
Clouds: missing
Weather: NSW  (no significant weather)
Text: BECMG 1908/1910 07011KT
Forecast period: 0800 to 1800 UTC 19 April 2019
Forecast type: BECOMING: Conditions expected to become as follows by 1000 UTC 19 April 2019
Winds: from the ENE (70 degrees) at 13 MPH (11 knots; 5.7 m/s)
Visibility: 6 or more miles 10+ km)
Ceiling: unknown
Clouds: missing
Weather: NSW  (no significant weather)